sensor_id;sensor_type;location;lat;lon;timestamp;pressure;altitude;pressure_sealevel;temperature;humidity
58471;BME280;44258;51.288;12.068;2023-04-30T00:01:12;100961.75;;;9.47;59.48
58471;BME280;44258;51.288;12.068;2023-04-30T00:03:39;100967.91;;;9.71;58.78
58471;BME280;44258;51.288;12.068;2023-04-30T00:06:05;100968.25;;;9.84;58.48
58471;BME280;44258;51.288;12.068;2023-04-30T00:08:32;100966.97;;;9.93;58.14
58471;BME280;44258;51.288;12.068;2023-04-30T00:10:58;100980.34;;;9.94;57.65
58471;BME280;44258;51.288;12.068;2023-04-30T00:13:24;100981.59;;;9.65;58.25
58471;BME280;44258;51.288;12.068;2023-04-30T00:15:52;100984.53;;;9.37;58.84
58471;BME280;44258;51.288;12.068;2023-04-30T00:18:19;100991.13;;;9.28;59.42
58471;BME280;44258;51.288;12.068;2023-04-30T00:20:45;100998.06;;;9.34;59.14
58471;BME280;44258;51.288;12.068;2023-04-30T00:23:12;100999.53;;;9.43;58.97
58471;BME280;44258;51.288;12.068;2023-04-30T00:25:38;100998.00;;;9.35;58.80
58471;BME280;44258;51.288;12.068;2023-04-30T00:28:04;101001.41;;;9.17;59.03
58471;BME280;44258;51.288;12.068;2023-04-30T00:30:31;101009.22;;;9.23;59.04
58471;BME280;44258;51.288;12.068;2023-04-30T00:32:59;101007.81;;;9.37;58.65
58471;BME280;44258;51.288;12.068;2023-04-30T00:35:25;101003.59;;;9.29;58.79
58471;BME280;44258;51.288;12.068;2023-04-30T00:37:51;101008.13;;;9.29;58.91
58471;BME280;44258;51.288;12.068;2023-04-30T00:40:19;101014.97;;;9.36;58.66
58471;BME280;44258;51.288;12.068;2023-04-30T00:42:45;101017.59;;;9.38;58.38
58471;BME280;44258;51.288;12.068;2023-04-30T00:45:13;101018.44;;;9.40;58.42
58471;BME280;44258;51.288;12.068;2023-04-30T00:47:42;101021.06;;;9.41;58.29
58471;BME280;44258;51.288;12.068;2023-04-30T00:50:10;101023.84;;;9.38;58.17
58471;BME280;44258;51.288;12.068;2023-04-30T00:52:40;101022.34;;;9.31;58.37
58471;BME280;44258;51.288;12.068;2023-04-30T00:55:11;101031.00;;;9.39;58.40
58471;BME280;44258;51.288;12.068;2023-04-30T00:57:38;101030.75;;;9.45;57.74
58471;BME280;44258;51.288;12.068;2023-04-30T01:00:06;101029.75;;;9.48;58.08
58471;BME280;44258;51.288;12.068;2023-04-30T01:02:35;101029.13;;;9.41;57.90
58471;BME280;44258;51.288;12.068;2023-04-30T01:05:02;101036.22;;;9.42;57.89
58471;BME280;44258;51.288;12.068;2023-04-30T01:07:31;101032.88;;;9.35;57.90
58471;BME280;44258;51.288;12.068;2023-04-30T01:09:58;101039.81;;;9.43;57.81
58471;BME280;44258;51.288;12.068;2023-04-30T01:12:29;101039.88;;;9.41;57.81
58471;BME280;44258;51.288;12.068;2023-04-30T01:15:07;101046.81;;;9.47;57.67
58471;BME280;44258;51.288;12.068;2023-04-30T01:17:38;101046.97;;;9.42;57.50
58471;BME280;44258;51.288;12.068;2023-04-30T01:20:08;101052.47;;;9.39;57.34
58471;BME280;44258;51.288;12.068;2023-04-30T01:22:45;101053.84;;;9.26;57.54
58471;BME280;44258;51.288;12.068;2023-04-30T01:25:50;101061.38;;;9.16;58.04
58471;BME280;44258;51.288;12.068;2023-04-30T01:28:20;101056.53;;;9.26;57.75
58471;BME280;44258;51.288;12.068;2023-04-30T01:30:49;101068.03;;;9.29;57.78
58471;BME280;44258;51.288;12.068;2023-04-30T01:33:16;101057.28;;;9.29;57.90
58471;BME280;44258;51.288;12.068;2023-04-30T01:36:09;101060.31;;;9.20;58.15
58471;BME280;44258;51.288;12.068;2023-04-30T01:38:59;101070.00;;;9.24;57.82
58471;BME280;44258;51.288;12.068;2023-04-30T01:41:33;101063.91;;;9.21;57.82
58471;BME280;44258;51.288;12.068;2023-04-30T01:44:23;101073.00;;;9.17;58.17
58471;BME280;44258;51.288;12.068;2023-04-30T01:47:01;101078.47;;;9.13;57.77
58471;BME280;44258;51.288;12.068;2023-04-30T01:49:38;101083.75;;;8.91;58.18
58471;BME280;44258;51.288;12.068;2023-04-30T01:52:15;101087.72;;;8.81;58.72
58471;BME280;44258;51.288;12.068;2023-04-30T01:54:51;101100.25;;;8.81;58.86
58471;BME280;44258;51.288;12.068;2023-04-30T01:57:26;101096.97;;;8.72;59.10
58471;BME280;44258;51.288;12.068;2023-04-30T01:59:55;101099.31;;;8.31;59.94
58471;BME280;44258;51.288;12.068;2023-04-30T02:02:22;101094.13;;;8.27;60.06
58471;BME280;44258;51.288;12.068;2023-04-30T02:04:49;101103.91;;;8.28;60.31
58471;BME280;44258;51.288;12.068;2023-04-30T02:07:27;101103.63;;;8.10;60.85
58471;BME280;44258;51.288;12.068;2023-04-30T02:10:02;101112.53;;;8.11;60.41
58471;BME280;44258;51.288;12.068;2023-04-30T02:12:29;101109.53;;;8.20;59.86
58471;BME280;44258;51.288;12.068;2023-04-30T02:14:57;101106.06;;;7.62;61.60
58471;BME280;44258;51.288;12.068;2023-04-30T02:17:23;101113.72;;;7.72;61.28
58471;BME280;44258;51.288;12.068;2023-04-30T02:19:50;101115.25;;;7.81;60.69
58471;BME280;44258;51.288;12.068;2023-04-30T02:22:19;101120.41;;;7.87;60.38
58471;BME280;44258;51.288;12.068;2023-04-30T02:24:45;101123.78;;;7.94;59.77
58471;BME280;44258;51.288;12.068;2023-04-30T02:27:12;101120.06;;;7.98;60.22
58471;BME280;44258;51.288;12.068;2023-04-30T02:29:38;101127.03;;;8.04;60.20
58471;BME280;44258;51.288;12.068;2023-04-30T02:32:06;101119.56;;;8.13;60.31
58471;BME280;44258;51.288;12.068;2023-04-30T02:34:33;101128.47;;;8.14;60.19
58471;BME280;44258;51.288;12.068;2023-04-30T02:36:59;101127.66;;;8.12;60.49
58471;BME280;44258;51.288;12.068;2023-04-30T02:39:26;101124.88;;;8.15;60.11
58471;BME280;44258;51.288;12.068;2023-04-30T02:41:53;101124.06;;;8.13;60.49
58471;BME280;44258;51.288;12.068;2023-04-30T02:44:19;101125.41;;;7.98;61.18
58471;BME280;44258;51.288;12.068;2023-04-30T02:46:48;101129.47;;;8.11;61.07
58471;BME280;44258;51.288;12.068;2023-04-30T02:49:18;101130.22;;;7.88;61.47
58471;BME280;44258;51.288;12.068;2023-04-30T02:51:45;101134.47;;;7.94;61.40
58471;BME280;44258;51.288;12.068;2023-04-30T02:54:14;101137.16;;;7.94;61.19
58471;BME280;44258;51.288;12.068;2023-04-30T02:56:42;101129.31;;;7.88;61.55
58471;BME280;44258;51.288;12.068;2023-04-30T02:59:08;101129.03;;;7.97;61.48
58471;BME280;44258;51.288;12.068;2023-04-30T03:01:35;101129.00;;;7.99;61.39
58471;BME280;44258;51.288;12.068;2023-04-30T03:04:02;101130.78;;;7.98;61.33
58471;BME280;44258;51.288;12.068;2023-04-30T03:06:30;101139.66;;;8.00;61.34
58471;BME280;44258;51.288;12.068;2023-04-30T03:08:57;101141.31;;;8.04;60.96
58471;BME280;44258;51.288;12.068;2023-04-30T03:11:24;101140.00;;;7.89;61.56
58471;BME280;44258;51.288;12.068;2023-04-30T03:13:50;101146.22;;;7.90;61.42
58471;BME280;44258;51.288;12.068;2023-04-30T03:16:18;101156.09;;;7.88;61.66
58471;BME280;44258;51.288;12.068;2023-04-30T03:18:45;101148.97;;;7.88;61.71
58471;BME280;44258;51.288;12.068;2023-04-30T03:21:11;101153.31;;;7.92;61.81
58471;BME280;44258;51.288;12.068;2023-04-30T03:23:39;101154.06;;;7.96;61.82
58471;BME280;44258;51.288;12.068;2023-04-30T03:26:07;101155.59;;;8.05;61.49
58471;BME280;44258;51.288;12.068;2023-04-30T03:28:33;101154.84;;;8.00;61.35
58471;BME280;44258;51.288;12.068;2023-04-30T03:31:00;101149.47;;;8.00;61.46
58471;BME280;44258;51.288;12.068;2023-04-30T03:33:29;101159.28;;;8.01;61.41
58471;BME280;44258;51.288;12.068;2023-04-30T03:35:55;101165.56;;;8.00;61.47
58471;BME280;44258;51.288;12.068;2023-04-30T03:38:22;101169.13;;;8.00;61.04
58471;BME280;44258;51.288;12.068;2023-04-30T03:40:50;101165.97;;;7.86;61.62
58471;BME280;44258;51.288;12.068;2023-04-30T03:43:16;101164.41;;;7.80;61.83
58471;BME280;44258;51.288;12.068;2023-04-30T03:45:44;101169.66;;;7.53;62.40
58471;BME280;44258;51.288;12.068;2023-04-30T03:48:11;101172.53;;;7.46;62.69
58471;BME280;44258;51.288;12.068;2023-04-30T03:50:37;101166.63;;;7.34;63.14
58471;BME280;44258;51.288;12.068;2023-04-30T03:53:04;101171.88;;;7.39;63.07
58471;BME280;44258;51.288;12.068;2023-04-30T03:55:31;101177.06;;;7.44;62.50
58471;BME280;44258;51.288;12.068;2023-04-30T03:57:59;101181.44;;;7.46;62.34
58471;BME280;44258;51.288;12.068;2023-04-30T04:00:25;101173.69;;;7.37;62.49
58471;BME280;44258;51.288;12.068;2023-04-30T04:02:52;101179.03;;;7.06;63.67
58471;BME280;44258;51.288;12.068;2023-04-30T04:05:18;101180.19;;;6.97;63.44
58471;BME280;44258;51.288;12.068;2023-04-30T04:07:46;101179.69;;;7.14;63.16
58471;BME280;44258;51.288;12.068;2023-04-30T04:10:12;101190.00;;;7.28;62.45
58471;BME280;44258;51.288;12.068;2023-04-30T04:12:39;101187.78;;;7.44;62.25
58471;BME280;44258;51.288;12.068;2023-04-30T04:15:08;101189.22;;;7.56;62.08
58471;BME280;44258;51.288;12.068;2023-04-30T04:17:35;101197.78;;;7.67;61.63
58471;BME280;44258;51.288;12.068;2023-04-30T04:20:01;101208.13;;;7.79;61.24
58471;BME280;44258;51.288;12.068;2023-04-30T04:22:30;101208.81;;;7.86;60.89
58471;BME280;44258;51.288;12.068;2023-04-30T04:24:56;101212.50;;;7.83;60.99
58471;BME280;44258;51.288;12.068;2023-04-30T04:27:23;101213.66;;;7.73;61.33
58471;BME280;44258;51.288;12.068;2023-04-30T04:29:49;101210.16;;;7.71;61.34
58471;BME280;44258;51.288;12.068;2023-04-30T04:32:20;101214.59;;;7.72;61.06
58471;BME280;44258;51.288;12.068;2023-04-30T04:34:47;101219.84;;;7.75;61.02
58471;BME280;44258;51.288;12.068;2023-04-30T04:37:14;101223.38;;;7.75;61.35
58471;BME280;44258;51.288;12.068;2023-04-30T04:39:41;101218.09;;;7.74;61.50
58471;BME280;44258;51.288;12.068;2023-04-30T04:42:09;101226.31;;;7.68;61.52
58471;BME280;44258;51.288;12.068;2023-04-30T04:44:35;101223.38;;;7.75;61.59
58471;BME280;44258;51.288;12.068;2023-04-30T04:47:02;101233.91;;;7.83;61.19
58471;BME280;44258;51.288;12.068;2023-04-30T04:49:33;101231.09;;;7.88;61.04
58471;BME280;44258;51.288;12.068;2023-04-30T04:51:59;101236.22;;;7.96;60.71
58471;BME280;44258;51.288;12.068;2023-04-30T04:54:26;101245.00;;;8.01;60.73
58471;BME280;44258;51.288;12.068;2023-04-30T04:56:52;101243.22;;;8.00;60.74
58471;BME280;44258;51.288;12.068;2023-04-30T04:59:19;101239.41;;;7.77;61.44
58471;BME280;44258;51.288;12.068;2023-04-30T05:01:48;101250.09;;;7.80;61.52
58471;BME280;44258;51.288;12.068;2023-04-30T05:04:14;101252.44;;;7.91;61.36
58471;BME280;44258;51.288;12.068;2023-04-30T05:06:42;101255.72;;;8.01;61.17
58471;BME280;44258;51.288;12.068;2023-04-30T05:09:09;101259.41;;;7.97;61.22
58471;BME280;44258;51.288;12.068;2023-04-30T05:11:37;101258.56;;;7.94;61.14
58471;BME280;44258;51.288;12.068;2023-04-30T05:14:05;101263.22;;;7.88;61.56
58471;BME280;44258;51.288;12.068;2023-04-30T05:16:32;101254.56;;;7.78;61.92
58471;BME280;44258;51.288;12.068;2023-04-30T05:18:58;101263.16;;;7.60;62.83
58471;BME280;44258;51.288;12.068;2023-04-30T05:21:26;101263.34;;;7.52;63.37
58471;BME280;44258;51.288;12.068;2023-04-30T05:23:55;101270.28;;;7.59;62.97
58471;BME280;44258;51.288;12.068;2023-04-30T05:26:24;101281.34;;;7.78;62.18
58471;BME280;44258;51.288;12.068;2023-04-30T05:28:51;101272.84;;;7.95;62.10
58471;BME280;44258;51.288;12.068;2023-04-30T05:31:17;101284.13;;;8.06;61.97
58471;BME280;44258;51.288;12.068;2023-04-30T05:33:44;101279.59;;;8.08;61.53
58471;BME280;44258;51.288;12.068;2023-04-30T05:36:10;101280.28;;;8.15;61.63
58471;BME280;44258;51.288;12.068;2023-04-30T05:38:40;101280.06;;;8.21;61.44
58471;BME280;44258;51.288;12.068;2023-04-30T05:41:10;101286.88;;;7.72;61.76
58471;BME280;44258;51.288;12.068;2023-04-30T05:43:36;101284.75;;;7.85;61.15
58471;BME280;44258;51.288;12.068;2023-04-30T05:46:03;101296.25;;;7.88;61.95
58471;BME280;44258;51.288;12.068;2023-04-30T05:48:29;101292.66;;;7.57;62.00
58471;BME280;44258;51.288;12.068;2023-04-30T05:50:56;101292.38;;;7.34;62.11
58471;BME280;44258;51.288;12.068;2023-04-30T05:53:22;101298.22;;;7.49;61.97
58471;BME280;44258;51.288;12.068;2023-04-30T05:55:49;101296.31;;;7.54;62.64
58471;BME280;44258;51.288;12.068;2023-04-30T05:58:17;101291.91;;;7.84;61.19
58471;BME280;44258;51.288;12.068;2023-04-30T06:00:43;101284.00;;;7.47;62.30
58471;BME280;44258;51.288;12.068;2023-04-30T06:03:10;101293.91;;;7.10;63.42
58471;BME280;44258;51.288;12.068;2023-04-30T06:05:36;101293.03;;;7.43;63.00
58471;BME280;44258;51.288;12.068;2023-04-30T06:08:10;101293.38;;;7.94;61.91
58471;BME280;44258;51.288;12.068;2023-04-30T06:10:37;101288.13;;;8.21;60.55
58471;BME280;44258;51.288;12.068;2023-04-30T06:13:04;101287.97;;;8.54;59.32
58471;BME280;44258;51.288;12.068;2023-04-30T06:15:34;101294.34;;;8.78;59.08
58471;BME280;44258;51.288;12.068;2023-04-30T06:18:01;101292.84;;;8.69;58.24
58471;BME280;44258;51.288;12.068;2023-04-30T06:20:29;101290.34;;;8.07;60.64
58471;BME280;44258;51.288;12.068;2023-04-30T06:22:56;101288.25;;;8.45;59.71
58471;BME280;44258;51.288;12.068;2023-04-30T06:25:24;101286.50;;;9.24;58.50
58471;BME280;44258;51.288;12.068;2023-04-30T06:27:53;101293.47;;;9.54;57.07
58471;BME280;44258;51.288;12.068;2023-04-30T06:30:20;101291.16;;;9.45;55.88
58471;BME280;44258;51.288;12.068;2023-04-30T06:32:47;101296.41;;;8.42;58.72
58471;BME280;44258;51.288;12.068;2023-04-30T06:35:14;101303.22;;;9.32;57.19
58471;BME280;44258;51.288;12.068;2023-04-30T06:37:40;101298.91;;;9.78;57.79
58471;BME280;44258;51.288;12.068;2023-04-30T06:40:07;101295.41;;;10.45;55.71
58471;BME280;44258;51.288;12.068;2023-04-30T06:42:34;101298.09;;;10.67;54.73
58471;BME280;44258;51.288;12.068;2023-04-30T06:45:01;101300.34;;;10.56;53.00
58471;BME280;44258;51.288;12.068;2023-04-30T06:47:29;101297.69;;;10.54;54.43
58471;BME280;44258;51.288;12.068;2023-04-30T06:50:00;101295.78;;;11.02;52.85
58471;BME280;44258;51.288;12.068;2023-04-30T06:52:26;101294.97;;;10.56;51.59
58471;BME280;44258;51.288;12.068;2023-04-30T06:54:53;101295.53;;;10.64;53.31
58471;BME280;44258;51.288;12.068;2023-04-30T06:57:19;101293.91;;;10.82;52.02
58471;BME280;44258;51.288;12.068;2023-04-30T06:59:49;101302.09;;;10.35;53.17
58471;BME280;44258;51.288;12.068;2023-04-30T07:02:16;101307.63;;;9.83;54.61
58471;BME280;44258;51.288;12.068;2023-04-30T07:04:42;101296.00;;;10.30;53.89
58471;BME280;44258;51.288;12.068;2023-04-30T07:07:10;101298.66;;;10.53;52.33
58471;BME280;44258;51.288;12.068;2023-04-30T07:09:36;101316.53;;;10.09;52.40
58471;BME280;44258;51.288;12.068;2023-04-30T07:12:03;101301.06;;;9.92;53.26
58471;BME280;44258;51.288;12.068;2023-04-30T07:14:29;101309.19;;;10.36;52.30
58471;BME280;44258;51.288;12.068;2023-04-30T07:16:56;101304.72;;;10.59;52.75
58471;BME280;44258;51.288;12.068;2023-04-30T07:19:22;101309.63;;;11.13;51.01
58471;BME280;44258;51.288;12.068;2023-04-30T07:21:51;101302.91;;;11.03;51.72
58471;BME280;44258;51.288;12.068;2023-04-30T07:24:19;101304.06;;;11.99;50.72
58471;BME280;44258;51.288;12.068;2023-04-30T07:26:45;101290.34;;;11.84;49.48
58471;BME280;44258;51.288;12.068;2023-04-30T07:29:12;101294.50;;;11.11;51.41
58471;BME280;44258;51.288;12.068;2023-04-30T07:31:38;101303.25;;;11.16;50.22
58471;BME280;44258;51.288;12.068;2023-04-30T07:34:04;101293.84;;;11.26;50.19
58471;BME280;44258;51.288;12.068;2023-04-30T07:36:31;101289.97;;;12.12;49.28
58471;BME280;44258;51.288;12.068;2023-04-30T07:38:57;101291.13;;;12.81;47.84
58471;BME280;44258;51.288;12.068;2023-04-30T07:41:25;101295.22;;;13.07;46.75
58471;BME280;44258;51.288;12.068;2023-04-30T07:43:52;101302.38;;;13.26;46.73
58471;BME280;44258;51.288;12.068;2023-04-30T07:46:18;101295.22;;;11.76;46.95
58471;BME280;44258;51.288;12.068;2023-04-30T07:48:46;101295.41;;;12.11;47.58
58471;BME280;44258;51.288;12.068;2023-04-30T07:51:15;101309.28;;;12.60;46.82
58471;BME280;44258;51.288;12.068;2023-04-30T07:53:42;101310.28;;;12.58;46.12
58471;BME280;44258;51.288;12.068;2023-04-30T07:56:09;101301.53;;;12.33;46.41
58471;BME280;44258;51.288;12.068;2023-04-30T07:58:36;101308.41;;;12.41;43.33
58471;BME280;44258;51.288;12.068;2023-04-30T08:01:03;101297.00;;;12.53;43.89
58471;BME280;44258;51.288;12.068;2023-04-30T08:03:29;101305.91;;;12.91;42.00
58471;BME280;44258;51.288;12.068;2023-04-30T08:05:57;101299.72;;;12.15;43.60
58471;BME280;44258;51.288;12.068;2023-04-30T08:08:23;101311.44;;;11.95;45.06
58471;BME280;44258;51.288;12.068;2023-04-30T08:10:51;101309.59;;;11.95;43.79
58471;BME280;44258;51.288;12.068;2023-04-30T08:13:18;101310.13;;;12.04;42.13
58471;BME280;44258;51.288;12.068;2023-04-30T08:15:46;101314.91;;;11.17;43.52
58471;BME280;44258;51.288;12.068;2023-04-30T08:18:12;101310.97;;;11.85;44.45
58471;BME280;44258;51.288;12.068;2023-04-30T08:20:39;101315.81;;;12.35;40.94
58471;BME280;44258;51.288;12.068;2023-04-30T08:23:05;101312.56;;;12.84;40.24
58471;BME280;44258;51.288;12.068;2023-04-30T08:25:32;101315.72;;;11.99;41.53
58471;BME280;44258;51.288;12.068;2023-04-30T08:27:58;101321.63;;;11.47;41.58
58471;BME280;44258;51.288;12.068;2023-04-30T08:30:25;101317.56;;;10.96;43.43
58471;BME280;44258;51.288;12.068;2023-04-30T08:32:53;101310.66;;;12.12;40.83
58471;BME280;44258;51.288;12.068;2023-04-30T08:35:20;101316.19;;;11.88;39.83
58471;BME280;44258;51.288;12.068;2023-04-30T08:37:47;101320.97;;;11.63;40.17
58471;BME280;44258;51.288;12.068;2023-04-30T08:40:13;101314.69;;;12.78;39.28
58471;BME280;44258;51.288;12.068;2023-04-30T08:42:46;101309.03;;;12.65;40.96
58471;BME280;44258;51.288;12.068;2023-04-30T08:45:15;101310.59;;;12.32;40.87
58471;BME280;44258;51.288;12.068;2023-04-30T08:47:44;101304.25;;;12.70;41.22
58471;BME280;44258;51.288;12.068;2023-04-30T08:50:14;101312.22;;;11.97;40.69
58471;BME280;44258;51.288;12.068;2023-04-30T08:52:42;101309.09;;;12.63;39.05
58471;BME280;44258;51.288;12.068;2023-04-30T08:55:09;101308.56;;;11.79;40.61
58471;BME280;44258;51.288;12.068;2023-04-30T08:57:36;101309.47;;;12.74;40.39
58471;BME280;44258;51.288;12.068;2023-04-30T09:00:03;101313.69;;;12.98;39.80
58471;BME280;44258;51.288;12.068;2023-04-30T09:02:31;101300.44;;;12.57;40.99
58471;BME280;44258;51.288;12.068;2023-04-30T09:04:57;101312.75;;;12.62;38.21
58471;BME280;44258;51.288;12.068;2023-04-30T09:07:25;101305.44;;;13.18;36.52
58471;BME280;44258;51.288;12.068;2023-04-30T09:09:53;101309.69;;;12.51;38.10
58471;BME280;44258;51.288;12.068;2023-04-30T09:12:19;101301.44;;;13.44;37.54
58471;BME280;44258;51.288;12.068;2023-04-30T09:15:00;101305.16;;;12.70;37.99
58471;BME280;44258;51.288;12.068;2023-04-30T09:17:31;101308.16;;;13.53;38.69
58471;BME280;44258;51.288;12.068;2023-04-30T09:20:06;101307.38;;;13.51;36.77
58471;BME280;44258;51.288;12.068;2023-04-30T09:22:35;101309.72;;;12.87;37.53
58471;BME280;44258;51.288;12.068;2023-04-30T09:25:02;101303.97;;;13.30;37.80
58471;BME280;44258;51.288;12.068;2023-04-30T09:27:29;101298.66;;;13.46;38.42
58471;BME280;44258;51.288;12.068;2023-04-30T09:29:56;101310.88;;;13.53;38.07
58471;BME280;44258;51.288;12.068;2023-04-30T09:32:22;101306.66;;;13.65;35.35
58471;BME280;44258;51.288;12.068;2023-04-30T09:34:49;101305.09;;;12.53;36.57
58471;BME280;44258;51.288;12.068;2023-04-30T09:37:15;101304.09;;;13.09;37.21
58471;BME280;44258;51.288;12.068;2023-04-30T09:39:47;101298.19;;;13.71;35.84
58471;BME280;44258;51.288;12.068;2023-04-30T09:42:15;101307.13;;;13.55;34.43
58471;BME280;44258;51.288;12.068;2023-04-30T09:44:42;101306.75;;;13.97;35.91
58471;BME280;44258;51.288;12.068;2023-04-30T09:47:13;101299.44;;;14.30;35.72
58471;BME280;44258;51.288;12.068;2023-04-30T09:49:42;101307.16;;;14.54;36.41
58471;BME280;44258;51.288;12.068;2023-04-30T09:52:10;101307.19;;;14.05;34.23
58471;BME280;44258;51.288;12.068;2023-04-30T09:54:37;101299.56;;;14.61;34.35
58471;BME280;44258;51.288;12.068;2023-04-30T09:57:09;101295.97;;;14.60;32.38
58471;BME280;44258;51.288;12.068;2023-04-30T09:59:42;101297.34;;;13.53;33.80
58471;BME280;44258;51.288;12.068;2023-04-30T10:02:12;101300.91;;;13.53;34.48
58471;BME280;44258;51.288;12.068;2023-04-30T10:04:41;101290.34;;;14.15;33.09
58471;BME280;44258;51.288;12.068;2023-04-30T10:07:11;101300.34;;;12.94;34.38
58471;BME280;44258;51.288;12.068;2023-04-30T10:09:40;101294.00;;;13.13;35.73
58471;BME280;44258;51.288;12.068;2023-04-30T10:12:13;101293.81;;;12.81;36.59
58471;BME280;44258;51.288;12.068;2023-04-30T10:14:48;101297.28;;;13.37;36.59
58471;BME280;44258;51.288;12.068;2023-04-30T10:17:17;101291.81;;;14.05;35.67
58471;BME280;44258;51.288;12.068;2023-04-30T10:19:47;101287.72;;;12.95;36.15
58471;BME280;44258;51.288;12.068;2023-04-30T10:22:18;101277.25;;;12.89;35.67
58471;BME280;44258;51.288;12.068;2023-04-30T10:24:49;101270.44;;;12.07;35.74
58471;BME280;44258;51.288;12.068;2023-04-30T10:27:17;101279.47;;;12.44;36.23
58471;BME280;44258;51.288;12.068;2023-04-30T10:29:45;101279.16;;;12.87;35.37
58471;BME280;44258;51.288;12.068;2023-04-30T10:32:15;101271.06;;;13.22;35.93
58471;BME280;44258;51.288;12.068;2023-04-30T10:34:56;101265.97;;;13.33;35.54
58471;BME280;44258;51.288;12.068;2023-04-30T10:37:30;101259.78;;;13.31;35.69
58471;BME280;44258;51.288;12.068;2023-04-30T10:40:00;101258.22;;;13.93;33.74
58471;BME280;44258;51.288;12.068;2023-04-30T10:42:33;101250.38;;;14.21;34.34
58471;BME280;44258;51.288;12.068;2023-04-30T10:45:01;101255.25;;;13.14;35.78
58471;BME280;44258;51.288;12.068;2023-04-30T10:47:28;101251.88;;;12.74;35.73
58471;BME280;44258;51.288;12.068;2023-04-30T10:50:06;101249.16;;;13.28;34.52
58471;BME280;44258;51.288;12.068;2023-04-30T10:52:33;101247.31;;;13.95;35.46
58471;BME280;44258;51.288;12.068;2023-04-30T10:55:03;101246.00;;;14.02;32.23
58471;BME280;44258;51.288;12.068;2023-04-30T10:57:40;101247.28;;;12.76;32.45
58471;BME280;44258;51.288;12.068;2023-04-30T11:00:17;101246.56;;;12.55;35.12
58471;BME280;44258;51.288;12.068;2023-04-30T11:02:46;101248.88;;;13.15;33.46
58471;BME280;44258;51.288;12.068;2023-04-30T11:05:15;101241.91;;;13.95;33.52
58471;BME280;44258;51.288;12.068;2023-04-30T11:07:47;101238.84;;;13.85;32.94
58471;BME280;44258;51.288;12.068;2023-04-30T11:10:15;101225.63;;;13.63;35.16
58471;BME280;44258;51.288;12.068;2023-04-30T11:12:48;101227.97;;;14.03;34.15
58471;BME280;44258;51.288;12.068;2023-04-30T11:15:16;101216.22;;;14.36;35.54
58471;BME280;44258;51.288;12.068;2023-04-30T11:17:44;101216.84;;;14.71;34.04
58471;BME280;44258;51.288;12.068;2023-04-30T11:20:12;101220.34;;;14.57;34.92
58471;BME280;44258;51.288;12.068;2023-04-30T11:22:39;101212.38;;;15.00;34.17
58471;BME280;44258;51.288;12.068;2023-04-30T11:25:08;101206.19;;;14.38;33.70
58471;BME280;44258;51.288;12.068;2023-04-30T11:27:36;101203.34;;;14.55;32.69
58471;BME280;44258;51.288;12.068;2023-04-30T11:30:12;101209.56;;;14.41;31.33
58471;BME280;44258;51.288;12.068;2023-04-30T11:32:40;101198.75;;;14.71;33.00
58471;BME280;44258;51.288;12.068;2023-04-30T11:35:07;101209.81;;;14.37;32.33
58471;BME280;44258;51.288;12.068;2023-04-30T11:37:35;101197.44;;;14.79;32.23
58471;BME280;44258;51.288;12.068;2023-04-30T11:40:04;101202.84;;;14.79;32.10
58471;BME280;44258;51.288;12.068;2023-04-30T11:42:32;101198.06;;;14.98;32.16
58471;BME280;44258;51.288;12.068;2023-04-30T11:45:04;101199.06;;;15.11;32.90
58471;BME280;44258;51.288;12.068;2023-04-30T11:47:43;101200.59;;;15.01;33.99
58471;BME280;44258;51.288;12.068;2023-04-30T11:50:11;101191.84;;;14.96;33.00
58471;BME280;44258;51.288;12.068;2023-04-30T11:52:37;101193.72;;;15.10;33.35
58471;BME280;44258;51.288;12.068;2023-04-30T11:55:06;101187.50;;;15.52;33.46
58471;BME280;44258;51.288;12.068;2023-04-30T11:57:38;101180.91;;;15.57;33.59
58471;BME280;44258;51.288;12.068;2023-04-30T12:00:10;101188.19;;;14.05;32.97
58471;BME280;44258;51.288;12.068;2023-04-30T12:02:37;101175.19;;;14.11;33.65
58471;BME280;44258;51.288;12.068;2023-04-30T12:05:11;101196.66;;;13.99;33.47
58471;BME280;44258;51.288;12.068;2023-04-30T12:07:38;101188.97;;;14.39;33.26
58471;BME280;44258;51.288;12.068;2023-04-30T12:10:05;101193.03;;;13.50;34.62
58471;BME280;44258;51.288;12.068;2023-04-30T12:12:35;101187.19;;;13.25;35.10
58471;BME280;44258;51.288;12.068;2023-04-30T12:15:13;101182.56;;;13.76;34.49
58471;BME280;44258;51.288;12.068;2023-04-30T12:17:40;101180.66;;;13.94;33.66
58471;BME280;44258;51.288;12.068;2023-04-30T12:20:09;101180.19;;;14.49;32.99
58471;BME280;44258;51.288;12.068;2023-04-30T12:22:36;101180.25;;;14.94;32.45
58471;BME280;44258;51.288;12.068;2023-04-30T12:25:05;101191.47;;;13.78;33.01
58471;BME280;44258;51.288;12.068;2023-04-30T12:27:32;101183.50;;;14.70;32.45
58471;BME280;44258;51.288;12.068;2023-04-30T12:30:04;101177.75;;;14.61;33.54
58471;BME280;44258;51.288;12.068;2023-04-30T12:32:41;101177.16;;;15.00;32.69
58471;BME280;44258;51.288;12.068;2023-04-30T12:35:14;101176.72;;;14.47;31.93
58471;BME280;44258;51.288;12.068;2023-04-30T12:37:41;101169.50;;;14.48;32.34
58471;BME280;44258;51.288;12.068;2023-04-30T12:40:09;101172.09;;;14.80;33.06
58471;BME280;44258;51.288;12.068;2023-04-30T12:42:35;101169.59;;;14.77;32.55
58471;BME280;44258;51.288;12.068;2023-04-30T12:45:02;101168.56;;;14.17;33.93
58471;BME280;44258;51.288;12.068;2023-04-30T12:47:29;101162.78;;;14.69;33.27
58471;BME280;44258;51.288;12.068;2023-04-30T12:49:58;101163.28;;;14.30;32.33
58471;BME280;44258;51.288;12.068;2023-04-30T12:52:26;101162.78;;;14.39;32.31